aviador You're here:

KVRB Decoded Metar

VERO BEACH in FL, USA
Report Time2017-11-19 20:53:00
UTC Time2017-11-19 21:45:56
Flight Rules vfr VFR
Wind280° at 07 kt
W.Decomp.*RWY 29: 7.0 kt HW 0.4 kt LCW
RWY 22: 2.7 kt HW 6.4 kt RCW
W.Rank280° ranks 16
Current wind is above 280° avg. (6.4)
Visibility9999 m
Phenomena:N/A
Clouds:Scattered 055 Hf
Expected CloudBase > 4,000 ft AGL from Temp-Dew spread
CeilingNone
Temp27°C (ISA +12)
Dew Point17°C (54% RH)
Heat Index27.7°C
AAT26.8°C
QNH1012 hPa
Density Alt1,716 ft
Elevation33 ft
Report Wrong Elevation
Raw Report
METAR KVRB 192053Z 28007KT 10SM SCT055 27/17 A2987 RMK AO2 SLP113 T02670172
55010=

Extra information for KVRB:More info

Metar Taf Metar & Taf Last 4 Metars F.Rules Stats Wind Profile Meteogram Temp Stats Airport Information Weather charts Add Link Nearby VenuesMetar ALERT Operation Metar Decoded Social comments

AIRNAV info for KVRB